Hlavní strana
METAR-TAF:

METAR-TAF

Letiště :

Tripolis, Libye

Mitiga International Airport

zeměpisná šířka: 32-54N, zeměpisná délka: 13-17E, výška: 11 m

Aktuální stav počasí

Zpráva byla vytvořena před 27 minutami, v 12:50 UTC
Východoseverovýchodní vítr 9 kt
Teplota 22°C
Vlhkost vzduchu 65%
Tlak 1019 hPa
Viditelnost 10 km a více
Žádná oblačnost pod 1500 m, nevyskytují se cumulonimby.

METAR: HLLM 231250Z 07009KT CAVOK 22/15 Q1019

Čas: 15:17 (13:17 UTC)

Předpověď počasí

Zpráva byla vytvořena před 8 hodinami a 17 minutami, v 05:00 UTC
Předpověď platná od 23 v 06 UTC do 24 v 06 UTC
Východní vítr 10 kt
Viditelnost 10 km a více
Žádná oblačnost pod 1500 m, nevyskytují se cumulonimby.
Pravděpodobnost 30%
od 23 v 21 UTC do 24 v 06 UTC
Oblačno až skoro zataženo ve výšce 1500 ft

TAF: HLLM 230500Z 2306/2406 09010KT CAVOK PROB30 2321/2406 BKN015

Stav a předpovědi počasí z více než 4 000 letišť (zprávy METAR a TAF).

Červené a žluté tečky na mapě představují dostupné meteorologické stanice.

Když kurzor umístíte na tečku, zobrazí se název stanice.

Pak kliknutím zobrazíte stav a předpověď počasí.

Chcete-li změnit mapu, kliknutím na zelené tlačítko se znaménkem +mapu přiblížíte, kliknutím na zelené tlačítko se znaménkem – mapu oddálíte a kliknutím na zelené šipky přejdete na sousední mapy.


METAR-TAF: